Aérodrome :
LOGIN :

S'inscrire | Disclaimer

   EN    FR    IT 

 










Légende :    VFR   VFR Marginal   IFR   IFR Intensif   IFR Très Intensif
Visi : 
Plafond : 
>= 8 km
>= 3000ft
5 à 8 km
1000 à 3000 ft
1500m à 5 km
500 à 1000 ft
800 à 1500m
200 à 500 ft
< 800m
< 200 ft
Symboles :   Orages  Brouillard  Fortes neiges  Fortes précipitations  Vent > 20 kt
SIGMETs :   Divers  Orages  Givrage  Turbulence  Onde Orograph.  Cendres Volcan.






- Altitude de l'aérodrome : 1649 ft
- Code IATA : HHN


EDFH - Frankfurt-Hahn Rhineland-Palatinate

DERNIER METAR :
  • 151250Z 26011KT 9999 SCT023 06/03 Q1004

METARs EXPIRÉS :
  • 151220Z 26013KT 9999 FEW024 06/03 Q1004
  • 151150Z 26018KT 9999 FEW015 06/04 Q1003
  • 151120Z 26013KT 230V300 9999 FEW015 06/04 Q1003
  • 151050Z 26015KT 230V290 9999 FEW015 06/04 Q1003
  • 151020Z 26012KT 230V300 9999 SCT015 06/05 Q1002

TAF AMD TAF EDFH
Valide du 15 à 12h jusqu'au 16 à 12h UTC


151233Z 1512/1612 26015G25KT 9999 SCT030
BECMG 1514/1517 23008KT
BECMG 1521/1524 16010KT 4000 -RA BR BKN010
TEMPO 1602/1609 1000 DZRA BCFG BKN001



MET'MAP, la Météo Aéronautique d'un coup d'oeil ! - Copyright ORBIFLY Décembre 2007 - Disclaimer

ORBIFLY MET'MAP TEAM :

Programmation & Développement : Alexandra Zaïnal
Sur une idée originale de : Baudouin d'Aumeries
Assistance à la programmation : Marc-Olivier Méhu
Soutien technique & logistique : Manuel Goepfert

Contact : metmap@orbifly.com




SOURCES & CREDITS :

   NOAA